sensor_id;sensor_type;location;lat;lon;timestamp;temperature;humidity
22742;DHT22;11538;48.884;8.696;2023-03-11T00:00:42;4.50;99.90
22742;DHT22;11538;48.884;8.696;2023-03-11T00:03:19;4.50;99.90
22742;DHT22;11538;48.884;8.696;2023-03-11T00:05:51;4.50;99.90
22742;DHT22;11538;48.884;8.696;2023-03-11T00:08:22;4.50;99.90
22742;DHT22;11538;48.884;8.696;2023-03-11T00:10:53;4.50;99.90
22742;DHT22;11538;48.884;8.696;2023-03-11T00:13:22;4.50;99.90
22742;DHT22;11538;48.884;8.696;2023-03-11T00:15:51;4.50;99.90
22742;DHT22;11538;48.884;8.696;2023-03-11T00:18:22;4.50;99.90
22742;DHT22;11538;48.884;8.696;2023-03-11T00:20:53;4.50;99.90
22742;DHT22;11538;48.884;8.696;2023-03-11T00:23:21;4.40;99.90
22742;DHT22;11538;48.884;8.696;2023-03-11T00:25:50;4.50;99.90
22742;DHT22;11538;48.884;8.696;2023-03-11T00:28:17;4.40;99.90
22742;DHT22;11538;48.884;8.696;2023-03-11T00:30:45;4.40;99.90
22742;DHT22;11538;48.884;8.696;2023-03-11T00:33:14;4.40;99.90
22742;DHT22;11538;48.884;8.696;2023-03-11T00:35:41;4.40;99.90
22742;DHT22;11538;48.884;8.696;2023-03-11T00:38:18;4.40;99.90
22742;DHT22;11538;48.884;8.696;2023-03-11T00:40:47;4.40;99.90
22742;DHT22;11538;48.884;8.696;2023-03-11T00:43:15;4.40;99.90
22742;DHT22;11538;48.884;8.696;2023-03-11T00:45:43;4.40;99.90
22742;DHT22;11538;48.884;8.696;2023-03-11T00:48:11;4.40;99.90
22742;DHT22;11538;48.884;8.696;2023-03-11T00:50:39;4.40;99.90
22742;DHT22;11538;48.884;8.696;2023-03-11T00:53:06;4.40;99.90
22742;DHT22;11538;48.884;8.696;2023-03-11T00:55:34;4.30;99.90
22742;DHT22;11538;48.884;8.696;2023-03-11T00:58:04;4.40;99.90
22742;DHT22;11538;48.884;8.696;2023-03-11T01:00:31;4.30;99.90
22742;DHT22;11538;48.884;8.696;2023-03-11T01:03:00;4.40;99.90
22742;DHT22;11538;48.884;8.696;2023-03-11T01:05:30;4.30;99.90
22742;DHT22;11538;48.884;8.696;2023-03-11T01:07:59;4.30;99.90
22742;DHT22;11538;48.884;8.696;2023-03-11T01:10:28;4.30;99.90
22742;DHT22;11538;48.884;8.696;2023-03-11T01:12:56;4.30;99.90
22742;DHT22;11538;48.884;8.696;2023-03-11T01:15:30;4.30;99.90
22742;DHT22;11538;48.884;8.696;2023-03-11T01:18:00;4.30;99.90
22742;DHT22;11538;48.884;8.696;2023-03-11T01:20:27;4.20;99.90
22742;DHT22;11538;48.884;8.696;2023-03-11T01:22:54;4.20;99.90
22742;DHT22;11538;48.884;8.696;2023-03-11T01:25:22;4.20;99.90
22742;DHT22;11538;48.884;8.696;2023-03-11T01:27:50;4.30;99.90
22742;DHT22;11538;48.884;8.696;2023-03-11T01:30:22;4.30;99.90
22742;DHT22;11538;48.884;8.696;2023-03-11T01:32:52;4.30;99.90
22742;DHT22;11538;48.884;8.696;2023-03-11T01:35:22;4.30;99.90
22742;DHT22;11538;48.884;8.696;2023-03-11T01:37:50;4.30;99.90
22742;DHT22;11538;48.884;8.696;2023-03-11T01:40:19;4.30;99.90
22742;DHT22;11538;48.884;8.696;2023-03-11T01:42:50;4.20;99.90
22742;DHT22;11538;48.884;8.696;2023-03-11T01:45:32;4.20;99.90
22742;DHT22;11538;48.884;8.696;2023-03-11T01:48:01;4.20;99.90
22742;DHT22;11538;48.884;8.696;2023-03-11T01:50:35;4.10;99.90
22742;DHT22;11538;48.884;8.696;2023-03-11T01:53:07;4.10;99.90
22742;DHT22;11538;48.884;8.696;2023-03-11T01:55:35;4.00;99.90
22742;DHT22;11538;48.884;8.696;2023-03-11T01:58:05;4.00;99.90
22742;DHT22;11538;48.884;8.696;2023-03-11T02:00:36;4.00;99.90
22742;DHT22;11538;48.884;8.696;2023-03-11T02:03:14;4.00;99.90
22742;DHT22;11538;48.884;8.696;2023-03-11T02:05:47;3.90;99.90
22742;DHT22;11538;48.884;8.696;2023-03-11T02:08:15;3.90;99.90
22742;DHT22;11538;48.884;8.696;2023-03-11T02:10:43;3.90;99.90
22742;DHT22;11538;48.884;8.696;2023-03-11T02:13:11;3.90;99.90
22742;DHT22;11538;48.884;8.696;2023-03-11T02:15:38;3.80;99.90
22742;DHT22;11538;48.884;8.696;2023-03-11T02:18:07;3.80;99.90
22742;DHT22;11538;48.884;8.696;2023-03-11T02:23:28;3.80;99.90
22742;DHT22;11538;48.884;8.696;2023-03-11T02:26:14;3.80;99.90
22742;DHT22;11538;48.884;8.696;2023-03-11T02:29:00;3.80;99.90
22742;DHT22;11538;48.884;8.696;2023-03-11T02:31:31;3.80;99.90
22742;DHT22;11538;48.884;8.696;2023-03-11T02:34:01;3.80;99.90
22742;DHT22;11538;48.884;8.696;2023-03-11T02:36:35;3.70;99.90
22742;DHT22;11538;48.884;8.696;2023-03-11T02:39:08;3.70;99.90
22742;DHT22;11538;48.884;8.696;2023-03-11T02:41:42;3.60;99.90
22742;DHT22;11538;48.884;8.696;2023-03-11T02:44:13;3.60;99.90
22742;DHT22;11538;48.884;8.696;2023-03-11T02:46:41;3.50;99.90
22742;DHT22;11538;48.884;8.696;2023-03-11T02:49:09;3.50;99.90
22742;DHT22;11538;48.884;8.696;2023-03-11T02:51:36;3.50;99.90
22742;DHT22;11538;48.884;8.696;2023-03-11T02:54:04;3.50;99.90
22742;DHT22;11538;48.884;8.696;2023-03-11T02:56:32;3.50;99.90
22742;DHT22;11538;48.884;8.696;2023-03-11T02:58:58;3.50;99.90
22742;DHT22;11538;48.884;8.696;2023-03-11T03:01:25;3.50;99.90
22742;DHT22;11538;48.884;8.696;2023-03-11T03:03:52;3.50;99.90
22742;DHT22;11538;48.884;8.696;2023-03-11T03:06:20;3.50;99.90
22742;DHT22;11538;48.884;8.696;2023-03-11T03:08:47;3.50;99.90
22742;DHT22;11538;48.884;8.696;2023-03-11T03:11:14;3.50;99.90
22742;DHT22;11538;48.884;8.696;2023-03-11T03:13:41;3.40;99.90
22742;DHT22;11538;48.884;8.696;2023-03-11T03:16:08;3.50;99.90
22742;DHT22;11538;48.884;8.696;2023-03-11T03:18:37;3.40;99.90
22742;DHT22;11538;48.884;8.696;2023-03-11T03:21:04;3.40;99.90
22742;DHT22;11538;48.884;8.696;2023-03-11T03:23:31;3.40;99.90
22742;DHT22;11538;48.884;8.696;2023-03-11T03:26:01;3.30;99.90
22742;DHT22;11538;48.884;8.696;2023-03-11T03:28:31;3.30;99.90
22742;DHT22;11538;48.884;8.696;2023-03-11T03:31:08;3.30;99.90
22742;DHT22;11538;48.884;8.696;2023-03-11T03:33:36;3.30;99.90
22742;DHT22;11538;48.884;8.696;2023-03-11T03:36:11;3.30;99.90
22742;DHT22;11538;48.884;8.696;2023-03-11T03:38:39;3.30;99.90
22742;DHT22;11538;48.884;8.696;2023-03-11T03:41:07;3.30;99.90
22742;DHT22;11538;48.884;8.696;2023-03-11T03:43:35;3.30;99.90
22742;DHT22;11538;48.884;8.696;2023-03-11T03:46:03;3.20;99.90
22742;DHT22;11538;48.884;8.696;2023-03-11T03:48:31;3.30;99.90
22742;DHT22;11538;48.884;8.696;2023-03-11T03:51:07;3.20;99.90
22742;DHT22;11538;48.884;8.696;2023-03-11T03:53:37;3.20;99.90
22742;DHT22;11538;48.884;8.696;2023-03-11T03:56:09;3.10;99.90
22742;DHT22;11538;48.884;8.696;2023-03-11T03:58:37;3.10;99.90
22742;DHT22;11538;48.884;8.696;2023-03-11T04:01:05;3.10;99.90
22742;DHT22;11538;48.884;8.696;2023-03-11T04:03:35;3.10;99.90
22742;DHT22;11538;48.884;8.696;2023-03-11T04:08:47;3.10;99.90
22742;DHT22;11538;48.884;8.696;2023-03-11T04:11:14;3.10;99.90
22742;DHT22;11538;48.884;8.696;2023-03-11T04:13:41;3.00;99.90
22742;DHT22;11538;48.884;8.696;2023-03-11T04:16:16;3.00;99.90
22742;DHT22;11538;48.884;8.696;2023-03-11T04:18:46;3.00;99.90
22742;DHT22;11538;48.884;8.696;2023-03-11T04:21:13;3.00;99.90
22742;DHT22;11538;48.884;8.696;2023-03-11T04:23:40;3.00;99.90
22742;DHT22;11538;48.884;8.696;2023-03-11T04:26:07;3.00;99.90
22742;DHT22;11538;48.884;8.696;2023-03-11T04:28:34;3.00;99.90
22742;DHT22;11538;48.884;8.696;2023-03-11T04:31:01;3.00;99.90
22742;DHT22;11538;48.884;8.696;2023-03-11T04:33:28;3.00;99.90
22742;DHT22;11538;48.884;8.696;2023-03-11T04:35:55;3.00;99.90
22742;DHT22;11538;48.884;8.696;2023-03-11T04:38:23;3.00;99.90
22742;DHT22;11538;48.884;8.696;2023-03-11T04:40:50;2.90;99.90
22742;DHT22;11538;48.884;8.696;2023-03-11T04:43:17;3.00;99.90
22742;DHT22;11538;48.884;8.696;2023-03-11T04:45:44;2.90;99.90
22742;DHT22;11538;48.884;8.696;2023-03-11T04:48:15;2.90;99.90
22742;DHT22;11538;48.884;8.696;2023-03-11T04:50:42;2.90;99.90
22742;DHT22;11538;48.884;8.696;2023-03-11T04:53:09;2.90;99.90
22742;DHT22;11538;48.884;8.696;2023-03-11T04:55:36;2.90;99.90
22742;DHT22;11538;48.884;8.696;2023-03-11T04:58:03;2.80;99.90
22742;DHT22;11538;48.884;8.696;2023-03-11T05:00:31;2.80;99.90
22742;DHT22;11538;48.884;8.696;2023-03-11T05:02:57;2.80;99.90
22742;DHT22;11538;48.884;8.696;2023-03-11T05:05:24;2.80;99.90
22742;DHT22;11538;48.884;8.696;2023-03-11T05:07:51;2.80;99.90
22742;DHT22;11538;48.884;8.696;2023-03-11T05:10:18;2.80;99.90
22742;DHT22;11538;48.884;8.696;2023-03-11T05:12:51;2.80;99.90
22742;DHT22;11538;48.884;8.696;2023-03-11T05:15:18;2.80;99.90
22742;DHT22;11538;48.884;8.696;2023-03-11T05:17:51;2.80;99.90
22742;DHT22;11538;48.884;8.696;2023-03-11T05:20:18;2.80;99.90
22742;DHT22;11538;48.884;8.696;2023-03-11T05:22:45;2.80;99.90
22742;DHT22;11538;48.884;8.696;2023-03-11T05:25:11;2.80;99.90
22742;DHT22;11538;48.884;8.696;2023-03-11T05:27:38;2.80;99.90
22742;DHT22;11538;48.884;8.696;2023-03-11T05:30:06;2.70;99.90
22742;DHT22;11538;48.884;8.696;2023-03-11T05:32:34;2.80;99.90
22742;DHT22;11538;48.884;8.696;2023-03-11T05:35:01;2.80;99.90
22742;DHT22;11538;48.884;8.696;2023-03-11T05:37:30;2.70;99.90
22742;DHT22;11538;48.884;8.696;2023-03-11T05:39:57;2.70;99.90
22742;DHT22;11538;48.884;8.696;2023-03-11T05:42:24;2.70;99.90
22742;DHT22;11538;48.884;8.696;2023-03-11T05:44:51;2.70;99.90
22742;DHT22;11538;48.884;8.696;2023-03-11T05:47:18;2.70;99.90
22742;DHT22;11538;48.884;8.696;2023-03-11T05:49:46;2.70;99.90
22742;DHT22;11538;48.884;8.696;2023-03-11T05:52:14;2.70;99.90
22742;DHT22;11538;48.884;8.696;2023-03-11T05:54:42;2.70;99.90
22742;DHT22;11538;48.884;8.696;2023-03-11T05:57:08;2.70;99.90
22742;DHT22;11538;48.884;8.696;2023-03-11T05:59:35;2.70;99.90
22742;DHT22;11538;48.884;8.696;2023-03-11T06:02:03;2.70;99.90
22742;DHT22;11538;48.884;8.696;2023-03-11T06:04:30;2.70;99.90
22742;DHT22;11538;48.884;8.696;2023-03-11T06:07:00;2.70;99.90
22742;DHT22;11538;48.884;8.696;2023-03-11T06:09:27;2.70;99.90
22742;DHT22;11538;48.884;8.696;2023-03-11T06:11:55;2.70;99.90
22742;DHT22;11538;48.884;8.696;2023-03-11T06:14:21;2.70;99.90
22742;DHT22;11538;48.884;8.696;2023-03-11T06:16:48;2.70;99.90
22742;DHT22;11538;48.884;8.696;2023-03-11T06:19:15;2.70;99.90
22742;DHT22;11538;48.884;8.696;2023-03-11T06:21:42;2.70;99.90
22742;DHT22;11538;48.884;8.696;2023-03-11T06:24:09;2.70;99.90
22742;DHT22;11538;48.884;8.696;2023-03-11T06:26:35;2.70;99.90
22742;DHT22;11538;48.884;8.696;2023-03-11T06:29:05;2.60;99.90
22742;DHT22;11538;48.884;8.696;2023-03-11T06:31:37;2.60;99.90
22742;DHT22;11538;48.884;8.696;2023-03-11T06:34:05;2.60;99.90
22742;DHT22;11538;48.884;8.696;2023-03-11T06:36:32;2.70;99.90
22742;DHT22;11538;48.884;8.696;2023-03-11T06:38:59;2.70;99.90
22742;DHT22;11538;48.884;8.696;2023-03-11T06:41:26;2.70;99.90
22742;DHT22;11538;48.884;8.696;2023-03-11T06:43:53;2.70;99.90
22742;DHT22;11538;48.884;8.696;2023-03-11T06:46:21;2.70;99.90
22742;DHT22;11538;48.884;8.696;2023-03-11T06:48:48;2.80;99.90
22742;DHT22;11538;48.884;8.696;2023-03-11T06:51:18;2.80;99.90
22742;DHT22;11538;48.884;8.696;2023-03-11T06:53:50;2.80;99.90
22742;DHT22;11538;48.884;8.696;2023-03-11T06:56:19;2.90;99.90
22742;DHT22;11538;48.884;8.696;2023-03-11T06:58:48;2.90;99.90
22742;DHT22;11538;48.884;8.696;2023-03-11T07:01:17;2.90;99.90
22742;DHT22;11538;48.884;8.696;2023-03-11T07:03:47;2.90;99.90
22742;DHT22;11538;48.884;8.696;2023-03-11T07:06:17;3.00;99.90
22742;DHT22;11538;48.884;8.696;2023-03-11T07:08:48;3.00;99.90
22742;DHT22;11538;48.884;8.696;2023-03-11T07:11:18;3.10;99.90
22742;DHT22;11538;48.884;8.696;2023-03-11T07:13:48;3.10;99.90
22742;DHT22;11538;48.884;8.696;2023-03-11T07:16:18;3.10;99.90
22742;DHT22;11538;48.884;8.696;2023-03-11T07:18:48;3.20;99.90
22742;DHT22;11538;48.884;8.696;2023-03-11T07:21:20;3.20;99.90
22742;DHT22;11538;48.884;8.696;2023-03-11T07:23:53;3.30;99.90
22742;DHT22;11538;48.884;8.696;2023-03-11T07:26:24;3.30;99.90
22742;DHT22;11538;48.884;8.696;2023-03-11T07:28:53;3.30;99.90
22742;DHT22;11538;48.884;8.696;2023-03-11T07:31:27;3.30;99.90
22742;DHT22;11538;48.884;8.696;2023-03-11T07:34:01;3.30;99.90
22742;DHT22;11538;48.884;8.696;2023-03-11T07:36:30;3.30;99.90
22742;DHT22;11538;48.884;8.696;2023-03-11T07:39:00;3.40;99.90
22742;DHT22;11538;48.884;8.696;2023-03-11T07:41:32;3.40;99.90
22742;DHT22;11538;48.884;8.696;2023-03-11T07:44:03;3.40;99.90
22742;DHT22;11538;48.884;8.696;2023-03-11T07:46:30;3.50;99.90
22742;DHT22;11538;48.884;8.696;2023-03-11T07:48:57;3.60;99.90
22742;DHT22;11538;48.884;8.696;2023-03-11T07:51:28;3.70;99.90
22742;DHT22;11538;48.884;8.696;2023-03-11T07:53:57;3.70;99.90
22742;DHT22;11538;48.884;8.696;2023-03-11T07:56:28;3.80;99.90
22742;DHT22;11538;48.884;8.696;2023-03-11T07:58:58;3.80;99.90
22742;DHT22;11538;48.884;8.696;2023-03-11T08:01:28;3.80;99.90
22742;DHT22;11538;48.884;8.696;2023-03-11T08:04:04;3.90;99.90
22742;DHT22;11538;48.884;8.696;2023-03-11T08:06:32;3.90;99.90
22742;DHT22;11538;48.884;8.696;2023-03-11T08:09:04;3.90;99.90
22742;DHT22;11538;48.884;8.696;2023-03-11T08:11:32;4.00;99.90
22742;DHT22;11538;48.884;8.696;2023-03-11T08:13:59;4.00;99.90
22742;DHT22;11538;48.884;8.696;2023-03-11T08:16:27;4.10;99.90
22742;DHT22;11538;48.884;8.696;2023-03-11T08:18:54;4.20;99.90
22742;DHT22;11538;48.884;8.696;2023-03-11T08:21:23;4.30;99.90
22742;DHT22;11538;48.884;8.696;2023-03-11T08:23:56;4.40;99.90
22742;DHT22;11538;48.884;8.696;2023-03-11T08:26:25;4.60;99.90
22742;DHT22;11538;48.884;8.696;2023-03-11T08:28:52;4.70;99.90
22742;DHT22;11538;48.884;8.696;2023-03-11T08:31:31;4.90;99.90
22742;DHT22;11538;48.884;8.696;2023-03-11T08:34:05;5.10;99.90
22742;DHT22;11538;48.884;8.696;2023-03-11T08:36:34;5.30;99.90
22742;DHT22;11538;48.884;8.696;2023-03-11T08:39:01;5.50;99.90
22742;DHT22;11538;48.884;8.696;2023-03-11T08:41:29;5.60;99.90
22742;DHT22;11538;48.884;8.696;2023-03-11T08:43:56;5.70;99.90
22742;DHT22;11538;48.884;8.696;2023-03-11T08:46:29;5.70;99.90
22742;DHT22;11538;48.884;8.696;2023-03-11T08:49:04;5.90;99.90
22742;DHT22;11538;48.884;8.696;2023-03-11T08:51:33;6.20;99.90
22742;DHT22;11538;48.884;8.696;2023-03-11T08:54:01;6.30;99.90
22742;DHT22;11538;48.884;8.696;2023-03-11T08:56:28;6.40;99.90
22742;DHT22;11538;48.884;8.696;2023-03-11T08:58:55;6.50;99.90
22742;DHT22;11538;48.884;8.696;2023-03-11T09:01:22;6.60;99.90
22742;DHT22;11538;48.884;8.696;2023-03-11T09:03:49;6.80;99.90
22742;DHT22;11538;48.884;8.696;2023-03-11T09:06:17;7.00;99.90
22742;DHT22;11538;48.884;8.696;2023-03-11T09:08:45;7.30;99.90
22742;DHT22;11538;48.884;8.696;2023-03-11T09:11:16;7.50;99.90
22742;DHT22;11538;48.884;8.696;2023-03-11T09:13:44;7.70;99.90
22742;DHT22;11538;48.884;8.696;2023-03-11T09:16:16;7.80;99.90
22742;DHT22;11538;48.884;8.696;2023-03-11T09:18:45;7.80;99.90
22742;DHT22;11538;48.884;8.696;2023-03-11T09:21:14;7.80;99.90
22742;DHT22;11538;48.884;8.696;2023-03-11T09:23:41;7.90;99.90
22742;DHT22;11538;48.884;8.696;2023-03-11T09:26:10;7.90;99.90
22742;DHT22;11538;48.884;8.696;2023-03-11T09:28:39;8.00;99.90
22742;DHT22;11538;48.884;8.696;2023-03-11T09:31:07;8.20;99.90
22742;DHT22;11538;48.884;8.696;2023-03-11T09:33:39;8.50;99.90
22742;DHT22;11538;48.884;8.696;2023-03-11T09:36:14;8.80;99.90
22742;DHT22;11538;48.884;8.696;2023-03-11T09:38:44;9.00;99.90
22742;DHT22;11538;48.884;8.696;2023-03-11T09:55:49;9.70;99.90
22742;DHT22;11538;48.884;8.696;2023-03-11T10:03:54;9.20;99.90
22742;DHT22;11538;48.884;8.696;2023-03-11T10:06:25;9.10;99.90
22742;DHT22;11538;48.884;8.696;2023-03-11T10:18:35;9.80;99.90
22742;DHT22;11538;48.884;8.696;2023-03-11T10:21:24;9.80;99.90
22742;DHT22;11538;48.884;8.696;2023-03-11T10:24:16;9.70;99.90
22742;DHT22;11538;48.884;8.696;2023-03-11T10:27:05;9.60;99.90
22742;DHT22;11538;48.884;8.696;2023-03-11T10:35:54;9.90;99.90
22742;DHT22;11538;48.884;8.696;2023-03-11T10:38:30;10.10;99.90
22742;DHT22;11538;48.884;8.696;2023-03-11T10:41:49;10.30;99.90
22742;DHT22;11538;48.884;8.696;2023-03-11T10:44:29;10.50;99.90
22742;DHT22;11538;48.884;8.696;2023-03-11T10:47:00;10.90;99.90
22742;DHT22;11538;48.884;8.696;2023-03-11T10:49:28;11.20;99.90
22742;DHT22;11538;48.884;8.696;2023-03-11T10:51:55;11.50;99.90
22742;DHT22;11538;48.884;8.696;2023-03-11T10:54:32;11.80;99.90
22742;DHT22;11538;48.884;8.696;2023-03-11T10:57:04;12.10;99.90
22742;DHT22;11538;48.884;8.696;2023-03-11T10:59:47;12.30;99.90
22742;DHT22;11538;48.884;8.696;2023-03-11T11:02:51;12.50;99.90
22742;DHT22;11538;48.884;8.696;2023-03-11T11:05:34;12.70;99.90
22742;DHT22;11538;48.884;8.696;2023-03-11T11:08:13;12.70;99.90
22742;DHT22;11538;48.884;8.696;2023-03-11T11:10:50;12.80;99.90
22742;DHT22;11538;48.884;8.696;2023-03-11T11:13:23;12.90;99.90
22742;DHT22;11538;48.884;8.696;2023-03-11T11:16:18;12.90;99.90
22742;DHT22;11538;48.884;8.696;2023-03-11T11:19:04;13.10;99.90
22742;DHT22;11538;48.884;8.696;2023-03-11T11:21:38;13.20;99.90
22742;DHT22;11538;48.884;8.696;2023-03-11T11:24:23;13.30;99.90
22742;DHT22;11538;48.884;8.696;2023-03-11T11:29:37;13.70;99.90
22742;DHT22;11538;48.884;8.696;2023-03-11T11:35:15;14.10;99.90
22742;DHT22;11538;48.884;8.696;2023-03-11T11:37:51;14.20;99.90
22742;DHT22;11538;48.884;8.696;2023-03-11T11:40:28;14.20;99.90
22742;DHT22;11538;48.884;8.696;2023-03-11T11:43:14;14.40;99.90
22742;DHT22;11538;48.884;8.696;2023-03-11T11:45:55;14.70;99.90
22742;DHT22;11538;48.884;8.696;2023-03-11T11:51:21;15.20;99.90
22742;DHT22;11538;48.884;8.696;2023-03-11T11:56:44;15.60;99.90
22742;DHT22;11538;48.884;8.696;2023-03-11T11:59:16;15.40;99.90
22742;DHT22;11538;48.884;8.696;2023-03-11T12:04:55;15.80;99.90
22742;DHT22;11538;48.884;8.696;2023-03-11T12:07:40;16.00;99.90
22742;DHT22;11538;48.884;8.696;2023-03-11T12:18:34;17.00;99.90
22742;DHT22;11538;48.884;8.696;2023-03-11T12:27:19;17.40;99.90
22742;DHT22;11538;48.884;8.696;2023-03-11T12:29:54;17.40;99.90
22742;DHT22;11538;48.884;8.696;2023-03-11T12:32:37;17.50;99.90
22742;DHT22;11538;48.884;8.696;2023-03-11T12:35:28;17.70;99.90
22742;DHT22;11538;48.884;8.696;2023-03-11T12:49:31;18.50;99.90
22742;DHT22;11538;48.884;8.696;2023-03-11T12:54:45;18.50;99.90
22742;DHT22;11538;48.884;8.696;2023-03-11T13:00:12;18.70;99.90
22742;DHT22;11538;48.884;8.696;2023-03-11T13:09:21;18.70;99.90
22742;DHT22;11538;48.884;8.696;2023-03-11T13:11:52;18.70;99.90
22742;DHT22;11538;48.884;8.696;2023-03-11T13:14:27;18.80;99.90
22742;DHT22;11538;48.884;8.696;2023-03-11T13:17:23;18.80;99.90
22742;DHT22;11538;48.884;8.696;2023-03-11T13:19:58;18.60;99.90
22742;DHT22;11538;48.884;8.696;2023-03-11T13:25:41;18.00;99.90
22742;DHT22;11538;48.884;8.696;2023-03-11T13:40:44;18.80;99.90
22742;DHT22;11538;48.884;8.696;2023-03-11T13:43:19;18.90;99.90
22742;DHT22;11538;48.884;8.696;2023-03-11T13:45:53;19.00;99.90
22742;DHT22;11538;48.884;8.696;2023-03-11T13:48:30;19.00;99.90
22742;DHT22;11538;48.884;8.696;2023-03-11T13:53:42;18.90;99.90
22742;DHT22;11538;48.884;8.696;2023-03-11T13:56:22;18.90;99.90
22742;DHT22;11538;48.884;8.696;2023-03-11T13:59:21;18.80;99.90
22742;DHT22;11538;48.884;8.696;2023-03-11T14:01:51;18.70;99.90
22742;DHT22;11538;48.884;8.696;2023-03-11T14:04:29;18.40;99.90
22742;DHT22;11538;48.884;8.696;2023-03-11T14:06:58;18.00;99.90
22742;DHT22;11538;48.884;8.696;2023-03-11T14:09:28;17.80;99.90
22742;DHT22;11538;48.884;8.696;2023-03-11T14:12:03;17.70;99.90
22742;DHT22;11538;48.884;8.696;2023-03-11T14:14:50;17.60;99.90
22742;DHT22;11538;48.884;8.696;2023-03-11T14:17:26;17.60;99.90
22742;DHT22;11538;48.884;8.696;2023-03-11T14:20:03;17.30;99.90
22742;DHT22;11538;48.884;8.696;2023-03-11T14:22:33;16.90;99.90
22742;DHT22;11538;48.884;8.696;2023-03-11T14:25:05;16.60;99.90
22742;DHT22;11538;48.884;8.696;2023-03-11T14:27:36;16.30;99.90
22742;DHT22;11538;48.884;8.696;2023-03-11T14:30:05;15.90;99.90
22742;DHT22;11538;48.884;8.696;2023-03-11T14:32:35;15.60;99.90
22742;DHT22;11538;48.884;8.696;2023-03-11T14:35:18;15.30;99.90
22742;DHT22;11538;48.884;8.696;2023-03-11T14:37:47;15.00;99.90
22742;DHT22;11538;48.884;8.696;2023-03-11T14:40:31;14.80;99.90
22742;DHT22;11538;48.884;8.696;2023-03-11T14:43:05;14.40;99.90
22742;DHT22;11538;48.884;8.696;2023-03-11T14:45:34;14.10;99.90
22742;DHT22;11538;48.884;8.696;2023-03-11T14:51:16;13.60;99.90
22742;DHT22;11538;48.884;8.696;2023-03-11T14:54:02;13.30;99.90
22742;DHT22;11538;48.884;8.696;2023-03-11T14:56:47;13.00;99.90
22742;DHT22;11538;48.884;8.696;2023-03-11T14:59:27;12.80;99.90
22742;DHT22;11538;48.884;8.696;2023-03-11T15:05:04;12.40;99.90
22742;DHT22;11538;48.884;8.696;2023-03-11T15:07:48;12.30;99.90
22742;DHT22;11538;48.884;8.696;2023-03-11T15:10:17;12.10;99.90
22742;DHT22;11538;48.884;8.696;2023-03-11T15:12:46;11.90;99.90
22742;DHT22;11538;48.884;8.696;2023-03-11T15:15:27;11.80;99.90
22742;DHT22;11538;48.884;8.696;2023-03-11T15:17:59;11.60;99.90
22742;DHT22;11538;48.884;8.696;2023-03-11T15:20:35;11.50;99.90
22742;DHT22;11538;48.884;8.696;2023-03-11T15:23:05;11.40;99.90
22742;DHT22;11538;48.884;8.696;2023-03-11T15:25:35;11.30;99.90
22742;DHT22;11538;48.884;8.696;2023-03-11T15:28:31;11.10;99.90
22742;DHT22;11538;48.884;8.696;2023-03-11T15:33:49;10.80;99.90
22742;DHT22;11538;48.884;8.696;2023-03-11T15:36:35;10.70;99.90
22742;DHT22;11538;48.884;8.696;2023-03-11T15:41:58;10.40;99.90
22742;DHT22;11538;48.884;8.696;2023-03-11T15:44:34;10.30;99.90
22742;DHT22;11538;48.884;8.696;2023-03-11T15:47:02;10.20;99.90
22742;DHT22;11538;48.884;8.696;2023-03-11T15:49:30;10.10;99.90
22742;DHT22;11538;48.884;8.696;2023-03-11T15:51:58;10.10;99.90
22742;DHT22;11538;48.884;8.696;2023-03-11T15:54:26;10.00;99.90
22742;DHT22;11538;48.884;8.696;2023-03-11T15:56:55;9.90;99.90
22742;DHT22;11538;48.884;8.696;2023-03-11T15:59:24;9.80;99.90
22742;DHT22;11538;48.884;8.696;2023-03-11T16:01:55;9.70;99.90
22742;DHT22;11538;48.884;8.696;2023-03-11T16:04:22;9.60;99.90
22742;DHT22;11538;48.884;8.696;2023-03-11T16:06:50;9.60;99.90
22742;DHT22;11538;48.884;8.696;2023-03-11T16:09:35;9.50;99.90
22742;DHT22;11538;48.884;8.696;2023-03-11T16:12:21;9.40;99.90
22742;DHT22;11538;48.884;8.696;2023-03-11T16:14:49;9.30;99.90
22742;DHT22;11538;48.884;8.696;2023-03-11T16:17:16;9.30;99.90
22742;DHT22;11538;48.884;8.696;2023-03-11T16:19:47;9.20;99.90
22742;DHT22;11538;48.884;8.696;2023-03-11T16:22:24;9.20;99.90
22742;DHT22;11538;48.884;8.696;2023-03-11T16:24:58;9.20;99.90
22742;DHT22;11538;48.884;8.696;2023-03-11T16:27:28;9.20;99.90
22742;DHT22;11538;48.884;8.696;2023-03-11T16:29:57;9.20;99.90
22742;DHT22;11538;48.884;8.696;2023-03-11T16:32:27;9.10;99.90
22742;DHT22;11538;48.884;8.696;2023-03-11T16:34:54;9.10;99.90
22742;DHT22;11538;48.884;8.696;2023-03-11T16:37:21;9.10;99.90
22742;DHT22;11538;48.884;8.696;2023-03-11T16:39:48;9.00;99.90
22742;DHT22;11538;48.884;8.696;2023-03-11T16:42:20;9.00;99.90
22742;DHT22;11538;48.884;8.696;2023-03-11T16:44:52;8.90;99.90
22742;DHT22;11538;48.884;8.696;2023-03-11T16:47:18;8.90;99.90
22742;DHT22;11538;48.884;8.696;2023-03-11T16:49:45;8.80;99.90
22742;DHT22;11538;48.884;8.696;2023-03-11T16:52:16;8.80;99.90
22742;DHT22;11538;48.884;8.696;2023-03-11T16:54:46;8.80;99.90
22742;DHT22;11538;48.884;8.696;2023-03-11T16:57:13;8.70;99.90
22742;DHT22;11538;48.884;8.696;2023-03-11T16:59:43;8.60;99.90
22742;DHT22;11538;48.884;8.696;2023-03-11T17:02:11;8.60;99.90
22742;DHT22;11538;48.884;8.696;2023-03-11T17:04:38;8.50;99.90
22742;DHT22;11538;48.884;8.696;2023-03-11T17:07:06;8.50;99.90
22742;DHT22;11538;48.884;8.696;2023-03-11T17:09:34;8.40;99.90
22742;DHT22;11538;48.884;8.696;2023-03-11T17:12:03;8.40;99.90
22742;DHT22;11538;48.884;8.696;2023-03-11T17:14:30;8.40;99.90
22742;DHT22;11538;48.884;8.696;2023-03-11T17:16:58;8.30;99.90
22742;DHT22;11538;48.884;8.696;2023-03-11T17:19:25;8.30;99.90
22742;DHT22;11538;48.884;8.696;2023-03-11T17:21:52;8.20;99.90
22742;DHT22;11538;48.884;8.696;2023-03-11T17:24:19;8.10;99.90
22742;DHT22;11538;48.884;8.696;2023-03-11T17:26:46;8.10;99.90
22742;DHT22;11538;48.884;8.696;2023-03-11T17:29:13;8.00;99.90
22742;DHT22;11538;48.884;8.696;2023-03-11T17:31:40;8.00;99.90
22742;DHT22;11538;48.884;8.696;2023-03-11T17:34:07;7.90;99.90
22742;DHT22;11538;48.884;8.696;2023-03-11T17:36:34;8.00;99.90
22742;DHT22;11538;48.884;8.696;2023-03-11T17:39:01;7.90;99.90
22742;DHT22;11538;48.884;8.696;2023-03-11T17:41:28;7.90;99.90
22742;DHT22;11538;48.884;8.696;2023-03-11T17:43:55;7.80;99.90
22742;DHT22;11538;48.884;8.696;2023-03-11T17:46:23;7.80;99.90
22742;DHT22;11538;48.884;8.696;2023-03-11T17:48:53;7.70;99.90
22742;DHT22;11538;48.884;8.696;2023-03-11T17:51:23;7.60;99.90
22742;DHT22;11538;48.884;8.696;2023-03-11T17:53:53;7.60;99.90
22742;DHT22;11538;48.884;8.696;2023-03-11T17:56:21;7.60;99.90
22742;DHT22;11538;48.884;8.696;2023-03-11T17:58:49;7.50;99.90
22742;DHT22;11538;48.884;8.696;2023-03-11T18:01:22;7.50;99.90
22742;DHT22;11538;48.884;8.696;2023-03-11T18:03:51;7.40;99.90
22742;DHT22;11538;48.884;8.696;2023-03-11T18:06:19;7.40;99.90
22742;DHT22;11538;48.884;8.696;2023-03-11T18:08:48;7.30;99.90
22742;DHT22;11538;48.884;8.696;2023-03-11T18:11:18;7.20;99.90